Tiempo atmosférico en la estación meteorológica de Villamayor de los Montes, Burgos (882 m.)



Fecha
DESCASC
Temp. máxima en grados centígrados (hora)
DESCASC
Temp. mínima en grados centígrados (hora)
DESCASC
Temp. media en grados centígrados
DESCASC
Racha de viento máxima en m/sg (hora)
DESCASC
Velocidad máxima media en intervalos de 10 minutos(hora)
DESCASC
Precipitaciones diarias en mm
DESCASC
Precipitaciones de 00:00 a 06:00 en mm
DESCASC
Precipitaciones de 06:00 a 12:00 en mm
DESCASC
Precipitaciones de 12:00 a 18:00 en mm
DESCASC
Precipitaciones de 18:00 a 24:00 en mm
DESCASC
19-09-2019 25.6 (17:10) 11.8 (08:00) 18.7 6.11 (17:50) 2.5 (19:30) 0 0 0 0 0
18-09-2019 24.6 (17:50) 13.5 (07:50) 19.1 10 (01:00) 6.39 (01:00) 1.2 1.2 0 0 0
17-09-2019 27.8 (17:50) 14.9 (00:00) 21.3 11.67 (23:40) 7.5 (23:30) 0 0 0 0 0
16-09-2019 23.5 (15:10) 13.8 (00:00) 18.7 8.61 (16:10) 5 (15:50) 0.4 0 0 0.4 0
15-09-2019 24.1 (12:30) 14.1 (00:00) 19.1 11.67 (13:30) 6.94 (13:30) 9.8 0 0 2.4 7.4
14-09-2019 26.9 (16:10) 14.7 (00:00) 20.8 9.72 (19:30) 5.56 (19:30) 0.4 0 0 0 0.4
13-09-2019 25.7 (15:30) 11.3 (00:00) 18.5 11.67 (16:30) 6.67 (13:10) 0 0 0 0 0
12-09-2019 26.3 (16:10) 8.7 (00:00) 17.5 9.44 (16:20) 6.11 (16:20) 0 0 0 0 0
11-09-2019 17.7 (17:50) 10.1 (00:00) 13.9 15.83 (16:20) 9.72 (16:10) 0 0 0 0 0
10-09-2019 13.3 (13:10) 8.4 (06:30) 10.8 17.78 (21:10) 11.67 (18:50) 0.8 0 0 0.8 0
09-09-2019 23.8 (14:00) 5.3 (07:50) 14.5 12.22 (22:10) 7.22 (22:10) 0 0 0 0 0
08-09-2019 22.7 (16:10) 8.7 (00:00) 15.7 10 (15:30) 6.11 (18:30) 0 0 0 0 0
07-09-2019 20.7 (16:40) 8.3 (00:00) 14.5 14.17 (17:30) 8.89 (17:00) 0 0 0 0 0
06-09-2019 18.6 (16:40) 9.2 (00:00) 13.9 18.61 (20:10) 9.72 (13:40) 0 0 0 0 0
05-09-2019 18.4 (16:00) 10.6 (00:00) 14.5 16.94 (09:30) 10.83 (09:30) 0 0 0 0 0
04-09-2019 25.8 (15:20) 6.3 (00:00) 16 18.61 (20:10) 10 (20:10) 0 0 0 0 0
03-09-2019 27.3 (17:10) 7.4 (00:00) 17.3 9.72 (00:20) 5.56 (00:20) 0 0 0 0 0
02-09-2019 21.6 (16:40) 11 (00:00) 16.3 17.5 (11:10) 9.44 (10:10) 0 0 0 0 0
01-09-2019 23 (16:10) 14.7 (00:00) 18.8 13.89 (22:00) 8.61 (19:10) 0 0 0 0 0
31-08-2019 31.5 (15:40) 17.2 (00:00) 24.4 11.67 (23:20) 7.22 (23:30) 0 0 0 0 0
30-08-2019 32.8 (17:10) 14.2 (00:00) 23.5 11.67 (18:40) 8.61 (18:40) 0 0 0 0 0
29-08-2019 31.8 (18:00) 13.8 (00:00) 22.8 7.78 (16:30) 3.61 (13:40) 0 0 0 0 0
28-08-2019 29.7 (17:10) 12.7 (00:00) 21.2 7.22 (12:40) 3.61 (10:00) 0 0 0 0 0
27-08-2019 26 (16:40) 12.3 (00:00) 19.2 7.78 (01:20) 4.44 (03:10) 0 0 0 0 0
26-08-2019 25.4 (13:10) 14.5 (00:00) 19.9 12.78 (21:20) 8.61 (21:30) 4.8 0 0 3 1.8
25-08-2019 33.2 (15:30) 18 (00:00) 25.6 16.11 (20:20) 9.44 (20:20) 0 0 0 0 0
24-08-2019 32.5 (17:40) 12.3 (00:00) 22.4 7.22 (14:00) 3.61 (01:50) 0 0 0 0 0
23-08-2019 31.8 (18:30) 11.1 (00:00) 21.4 8.61 (14:30) 3.89 (14:30) 0 0 0 0 0

Gráficas

Temp. máximas Temp. mínimas Temp. medias Precipitaciones Rachas de viento máximas Velocidades máximas media en intervalos de 10 minutos

Datos horarios

Fecha y hora oficial Temperatura (ºC) Velocidad del viento (km/h) Dirección del viento Racha (km/h) Dirección de racha Precipitación (mm) Presión (hPa) Tendencia (hPa) Humedad (%)
2019-09-21 23:00:00 16.9 20 Sur 32 Sur 0 -- -- 78
2019-09-21 22:00:00 16.7 17 Sur 29 Sur 0 -- -- 81
2019-09-21 21:00:00 16.5 19 Sur 31 Sur 0 -- -- 80
2019-09-21 20:00:00 16.6 20 Sur 37 Sur 0 -- -- 80
2019-09-21 19:00:00 16.6 21 Sur 35 Sur 0 -- -- 82
2019-09-21 18:00:00 16 23 Sur 36 Sudoeste 0.2 -- -- 85
2019-09-21 17:00:00 16.4 24 Sur 52 Sudoeste 0.2 -- -- 82
2019-09-21 16:00:00 19.3 23 Sudoeste 39 Sur 0 -- -- 60
2019-09-21 15:00:00 19.5 20 Sudoeste 32 Sudoeste 0 -- -- 58
2019-09-21 14:00:00 19 18 Sudoeste 33 Sudoeste 0 -- -- 60
2019-09-21 13:00:00 19.9 23 Sudoeste 35 Sudoeste 0 -- -- 55
2019-09-21 12:00:00 18.4 18 Sur 31 Sur 0 -- -- 63
2019-09-21 11:00:00 17.3 17 Sur 24 Sudoeste 0 -- -- 72
2019-09-21 10:00:00 16 16 Sur 23 Sudeste 0 -- -- 80
2019-09-21 09:00:00 14.7 15 Sur 21 Sur 0 -- -- 84
2019-09-21 08:00:00 14.4 15 Sur 21 Sur 0 -- -- 86
2019-09-21 07:00:00 14.3 12 Sur 23 Sur 0 -- -- 86
2019-09-21 06:00:00 14.3 15 Sur 31 Sur 0 -- -- 87
2019-09-21 05:00:00 14.8 17 Sur 26 Sudeste 0 -- -- 80
2019-09-21 04:00:00 14.4 12 Sudeste 22 Sur 0 -- -- 82
2019-09-21 03:00:00 14.7 10 Sudeste 17 Sudeste 0 -- -- 82
2019-09-21 02:00:00 15.5 9 Sudeste 22 Sudeste 0 -- -- 76
2019-09-21 01:00:00 16.3 15 Sudeste 32 Sudeste 0 -- -- 72
2019-09-21 00:00:00 17.9 11 Sudoeste 34 Sudoeste 0 -- -- 66
2019-09-20 23:00:00 17.7 12 Sudeste 28 Sudeste 0 -- -- 75
2019-09-20 22:00:00 17.5 15 Sudeste 28 Sudeste 0 -- -- 75
2019-09-20 21:00:00 18.4 12 Sudeste 23 Sudeste 0 -- -- 74
2019-09-20 20:00:00 19.5 13 Sudeste 26 Sudeste 0 -- -- 56
2019-09-20 19:00:00 19.7 3 Sur 17 Sur 0.8 -- -- 74
2019-09-20 18:00:00 20.8 16 Sudeste 41 Sur 0 -- -- 59
2019-09-20 17:00:00 24.4 8 Sudoeste 32 Sur 0 -- -- 48
2019-09-20 16:00:00 24.8 8 Sur 24 Sur 0 -- -- 47
2019-09-20 15:00:00 25.7 10 Sur 30 Sur 0 -- -- 44
2019-09-20 14:00:00 23.8 12 Sur 33 Sur 0 -- -- 50
2019-09-20 13:00:00 23.6 21 Sur 33 Sur 0 -- -- 53
2019-09-20 12:00:00 22 13 Sudeste 30 Sudeste 0 -- -- 59
2019-09-20 11:00:00 21.2 16 Sudeste 28 Sudeste 0 -- -- 60
2019-09-20 10:00:00 19.8 15 Sudeste 31 Sudeste 0 -- -- 64
2019-09-20 09:00:00 17.9 15 Sudeste 28 Sudeste 0 -- -- 70
2019-09-20 08:00:00 16.9 11 Sudeste 22 Sudeste 0 -- -- 74
2019-09-20 07:00:00 17.2 14 Sudeste 23 Sudeste 0 -- -- 72
2019-09-20 06:00:00 17.1 13 Sudeste 20 Sudeste 0 -- -- 72
2019-09-20 05:00:00 17.6 8 Sudeste 16 Sudeste 0 -- -- 70
2019-09-20 04:00:00 17.3 6 Sudeste 15 Sudeste 0 -- -- 72
2019-09-20 03:00:00 17.8 9 Sudeste 20 Sudeste 0 -- -- 70
2019-09-20 02:00:00 17.7 10 Sudeste 18 Este 0 -- -- 68
2019-09-20 01:00:00 15.9 6 Este 12 Este 0 -- -- 80
2019-09-20 00:00:00 15.9 0 Calma 13 Este 0 -- -- 81
2019-09-19 23:00:00 17.9 9 Este 15 Nordeste 0 -- -- 74
2019-09-19 22:00:00 19 8 Este 13 Nordeste 0 -- -- 71
2019-09-19 21:00:00 20.4 7 Nordeste 13 Nordeste 0 -- -- 64
2019-09-19 20:00:00 22.6 8 Nordeste 15 Nordeste 0 -- -- 52
2019-09-19 19:00:00 24.9 5 Noroeste 11 Noroeste 0 -- -- 43
2019-09-19 18:00:00 25.2 8 Noroeste 22 Noroeste 0 -- -- 42
2019-09-19 17:00:00 25.5 5 Oeste 14 Sudoeste 0 -- -- 41
2019-09-19 16:00:00 25 7 Norte 12 Norte 0 -- -- 43
2019-09-19 15:00:00 23.8 3 Nordeste 12 Noroeste 0 -- -- 45
2019-09-19 14:00:00 22.7 5 Oeste 12 Oeste 0 -- -- 52
2019-09-19 13:00:00 21.9 6 Norte 12 Norte 0 -- -- 57
2019-09-19 12:00:00 19.7 4 Noroeste 9 Norte 0 -- -- 66
2019-09-19 11:00:00 18.1 2 Sudoeste 5 Noroeste 0 -- -- 72
2019-09-19 10:00:00 15.3 3 Nordeste 12 Este 0 -- -- 83
2019-09-19 09:00:00 12.3 6 Nordeste 10 Nordeste 0 -- -- 92
2019-09-19 08:00:00 11.8 6 Nordeste 12 Nordeste 0 -- -- 91
2019-09-19 07:00:00 12.2 7 Nordeste 12 Nordeste 0 -- -- 91
2019-09-19 06:00:00 12.8 8 Nordeste 13 Nordeste 0 -- -- 90
2019-09-19 05:00:00 13 7 Nordeste 11 Nordeste 0 -- -- 90
2019-09-19 04:00:00 13.8 6 Nordeste 12 Nordeste 0 -- -- 89
2019-09-19 03:00:00 14.6 5 Nordeste 14 Nordeste 0 -- -- 87
2019-09-19 02:00:00 14.8 8 Nordeste 10 Nordeste 0 -- -- 88
2019-09-19 01:00:00 15.7 6 Este 10 Nordeste 0 -- -- 85
2019-09-19 00:00:00 16.6 8 Nordeste 16 Nordeste 0 -- -- 84
2019-09-18 23:00:00 17.2 11 Nordeste 20 Nordeste 0 -- -- 83
2019-09-18 22:00:00 17.6 7 Nordeste 14 Nordeste 0 -- -- 81
2019-09-18 21:00:00 18 7 Nordeste 13 Nordeste 0 -- -- 73
2019-09-18 20:00:00 18.8 5 Nordeste 20 Nordeste 0 -- -- 63
2019-09-18 19:00:00 20 8 Nordeste 24 Nordeste 0 -- -- 59
2019-09-18 18:00:00 24.2 8 Norte 16 Noroeste 0 -- -- 46
2019-09-18 17:00:00 23.5 4 Norte 15 Oeste 0 -- -- 49
2019-09-18 16:00:00 22.4 6 Oeste 14 Norte 0 -- -- 53
2019-09-18 15:00:00 21.9 4 Norte 14 Oeste 0 -- -- 59
2019-09-18 14:00:00 19.9 5 Oeste 11 Oeste 0 -- -- 66
2019-09-18 13:00:00 18.9 4 Noroeste 12 Sudoeste 0 -- -- 69
2019-09-18 12:00:00 18 5 Sur 10 Sur 0 -- -- 75
2019-09-18 11:00:00 17.5 5 Sur 13 Sur 0 -- -- 78
2019-09-18 10:00:00 15.1 2 Sudoeste 4 Norte 0 -- -- 90
2019-09-18 09:00:00 13.7 3 Nordeste 4 Nordeste 0 -- -- 93
2019-09-18 08:00:00 13.5 2 Oeste 6 Oeste 0 -- -- 93
2019-09-18 07:00:00 13.7 4 Oeste 15 Este 0 -- -- 92
2019-09-18 06:00:00 13.7 9 Este 15 Este 0 -- -- 92
2019-09-18 05:00:00 13.9 9 Nordeste 24 Norte 0 -- -- 92
2019-09-18 04:00:00 14.2 6 Nordeste 21 Norte 0 -- -- 92
2019-09-18 03:00:00 14.7 10 Norte 15 Norte 0 -- -- 91
2019-09-18 02:00:00 15.1 2 Noroeste 35 Sur 1 -- -- 89
2019-09-18 01:00:00 15.2 23 Sur 36 Sur 0.2 -- -- 85
2019-09-18 00:00:00 16.2 18 Sudoeste 42 Sudoeste 0 -- -- 74
2019-09-17 23:00:00 18.9 8 Este 21 Nordeste 0 -- -- 67
2019-09-17 22:00:00 19.5 10 Nordeste 18 Nordeste 0 -- -- 64
2019-09-17 21:00:00 21.3 11 Nordeste 17 Nordeste 0 -- -- 59
2019-09-15 18:00:00 15.6 13 Sur 27 Sur 2 -- -- 88
2019-09-15 17:00:00 19.2 5 Oeste 15 Nordeste 0 -- -- 68
2019-09-15 16:00:00 18.7 8 Nordeste 14 Norte 0 -- -- 71
2019-09-15 15:00:00 17.4 5 Sudoeste 24 Sudoeste 0.2 -- -- 78
2019-09-15 14:00:00 18.3 16 Sudoeste 42 Sur 0.2 -- -- 64
2019-09-15 13:00:00 22 13 Sudeste 27 Sur 0 -- -- 51
2019-09-15 12:00:00 22.3 8 Este 28 Este 0 -- -- 43
2019-09-15 11:00:00 21.1 14 Sudeste 27 Sudeste 0 -- -- 43
2019-09-15 10:00:00 18 6 Norte 9 Norte 0 -- -- 69
2019-09-15 09:00:00 15.2 2 Nordeste 8 Nordeste 0 -- -- 77
2019-09-15 08:00:00 15.5 4 Nordeste 12 Nordeste 0 -- -- 74
2019-09-15 07:00:00 15.6 5 Nordeste 12 Nordeste 0 -- -- 72
2019-09-15 06:00:00 15.8 9 Nordeste 14 Nordeste 0 -- -- 71
2019-09-15 05:00:00 15.7 7 Nordeste 14 Nordeste 0 -- -- 73
2019-09-15 04:00:00 16 8 Nordeste 16 Este 0 -- -- 75
2019-09-15 03:00:00 15.8 8 Nordeste 13 Nordeste 0 -- -- 75
2019-09-15 02:00:00 15.8 7 Nordeste 11 Nordeste 0 -- -- 78
2019-09-15 01:00:00 17 0 Calma 13 Nordeste 0 -- -- 78
2019-09-15 00:00:00 17.6 6 Nordeste 10 Norte 0.4 -- -- 77
2019-09-14 23:00:00 18.5 5 Noroeste 19 Sur 0 -- -- 68
2019-09-14 22:00:00 19.5 9 Este 20 Este 0 -- -- 60
2019-09-14 21:00:00 19 10 Sudeste 29 Sur 0 -- -- 64
2019-09-14 20:00:00 20.3 16 Sur 35 Sudeste 0 -- -- 61
2019-09-14 19:00:00 24.6 13 Sudeste 26 Este 0 -- -- 36
2019-09-14 18:00:00 25.6 15 Sudeste 31 Sudeste 0 -- -- 36
2019-09-14 17:00:00 26.9 17 Sudeste 34 Sudeste 0 -- -- 34
2019-09-14 16:00:00 26.7 17 Sudeste 32 Sudeste 0 -- -- 33
2019-09-14 15:00:00 26.4 14 Este 34 Este 0 -- -- 34
2019-09-14 14:00:00 25.4 14 Este 29 Este 0 -- -- 35
2019-09-14 13:00:00 23.3 13 Este 28 Este 0 -- -- 41
2019-09-14 12:00:00 22.5 13 Este 30 Este 0 -- -- 43
2019-09-14 11:00:00 20.6 9 Nordeste 22 Este 0 -- -- 48
2019-09-14 10:00:00 16.7 7 Norte 12 Norte 0 -- -- 73
2019-09-14 09:00:00 15 3 Este 5 Nordeste 0 -- -- 77
2019-09-14 08:00:00 14.8 2 Nordeste 11 Nordeste 0 -- -- 77
2019-09-14 07:00:00 15.4 8 Nordeste 12 Nordeste 0 -- -- 75
2019-09-14 06:00:00 15.9 5 Nordeste 14 Nordeste 0 -- -- 73
2019-09-14 05:00:00 15.8 8 Nordeste 13 Nordeste 0 -- -- 73
2019-09-14 04:00:00 15.8 7 Nordeste 13 Nordeste 0 -- -- 72
2019-09-14 03:00:00 15.6 8 Nordeste 15 Nordeste 0 -- -- 73
2019-09-14 02:00:00 15.3 7 Nordeste 14 Nordeste 0 -- -- 75
2019-09-14 01:00:00 15.3 8 Nordeste 15 Este 0 -- -- 75
2019-09-14 00:00:00 15.7 9 Nordeste 14 Este 0 -- -- 72
2019-09-13 23:00:00 17 10 Nordeste 17 Nordeste 0 -- -- 67
2019-09-13 22:00:00 18.2 5 Nordeste 14 Este 0 -- -- 63
2019-09-13 21:00:00 18.5 8 Nordeste 13 Nordeste 0 -- -- 61
2019-09-13 20:00:00 19.5 7 Este 16 Este 0 -- -- 52
2019-09-13 19:00:00 19.8 7 Este 21 Este 0 -- -- 51
2019-09-13 18:00:00 20.3 16 Sudeste 30 Sudeste 0 -- -- 52
2019-09-13 17:00:00 21.4 14 Sudeste 42 Sudeste 0 -- -- 41
2019-09-13 16:00:00 24.8 21 Este 36 Sudeste 0 -- -- 33
2019-09-13 15:00:00 25.1 16 Nordeste 36 Norte 0 -- -- 33
2019-09-13 14:00:00 25.5 19 Nordeste 40 Norte 0 -- -- 40
2019-09-13 13:00:00 24.9 19 Norte 31 Norte 0 -- -- 42
2019-09-13 12:00:00 21.1 9 Nordeste 24 Nordeste 0 -- -- 53
2019-09-13 11:00:00 19 12 Nordeste 22 Nordeste 0 -- -- 60
2019-09-13 10:00:00 16.9 14 Norte 22 Nordeste 0 -- -- 64
2019-09-13 09:00:00 13.3 6 Nordeste 18 Nordeste 0 -- -- 72
2019-09-13 08:00:00 11.3 9 Nordeste 12 Nordeste 0 -- -- 80
2019-09-13 07:00:00 11.9 5 Nordeste 12 Este 0 -- -- 79
2019-09-13 06:00:00 12.4 3 Nordeste 15 Este 0 -- -- 75
2019-09-13 05:00:00 13.6 11 Nordeste 15 Este 0 -- -- 72
2019-09-13 04:00:00 12.7 5 Nordeste 13 Nordeste 0 -- -- 74
2019-09-13 03:00:00 13.5 9 Nordeste 13 Nordeste 0 -- -- 75
2019-09-13 02:00:00 14.6 7 Nordeste 11 Nordeste 0 -- -- 74
2019-09-13 01:00:00 15.5 8 Nordeste 10 Nordeste 0 -- -- 73
2019-09-13 00:00:00 16.5 7 Nordeste 11 Nordeste 0 -- -- 69
2019-09-12 23:00:00 17.9 5 Nordeste 15 Nordeste 0 -- -- 64
2019-09-12 22:00:00 19.9 12 Nordeste 24 Nordeste 0 -- -- 54
2019-09-12 21:00:00 21.4 13 Nordeste 29 Nordeste 0 -- -- 50
2019-09-12 20:00:00 23.6 14 Nordeste 32 Nordeste 0 -- -- 44
2019-09-12 19:00:00 25.1 16 Nordeste 34 Norte 0 -- -- 41
2019-09-12 18:00:00 26 18 Nordeste 32 Nordeste 0 -- -- 38
2019-09-12 17:00:00 26.2 15 Norte 34 Norte 0 -- -- 37
2019-09-12 16:00:00 26.2 15 Norte 30 Norte 0 -- -- 36
2019-09-12 15:00:00 25.5 15 Norte 25 Norte 0 -- -- 38
2019-09-12 14:00:00 24.6 9 Norte 18 Norte 0 -- -- 40
2019-09-12 13:00:00 22.9 5 Noroeste 13 Norte 0 -- -- 42
2019-09-12 12:00:00 20.5 5 Nordeste 16 Nordeste 0 -- -- 49
2019-09-12 11:00:00 16.9 7 Nordeste 13 Nordeste 0 -- -- 60
2019-09-12 10:00:00 13.3 6 Nordeste 17 Este 0 -- -- 71
2019-09-12 09:00:00 10.2 9 Nordeste 17 Nordeste 0 -- -- 84
2019-09-12 08:00:00 8.8 8 Nordeste 14 Este 0 -- -- 85
2019-09-12 07:00:00 9.2 9 Este 17 Este 0 -- -- 84
2019-09-12 06:00:00 9.6 6 Nordeste 18 Nordeste 0 -- -- 83
2019-09-12 05:00:00 10.2 10 Nordeste 22 Nordeste 0 -- -- 83
2019-09-12 04:00:00 11 16 Nordeste 30 Nordeste 0 -- -- 82
2019-09-12 03:00:00 11 18 Nordeste 32 Nordeste 0 -- -- 82
2019-09-12 02:00:00 11.2 15 Nordeste 33 Nordeste 0 -- -- 80
2019-09-12 01:00:00 11.7 19 Nordeste 33 Nordeste 0 -- -- 80
2019-09-12 00:00:00 12 20 Nordeste 42 Nordeste 0 -- -- 80
2019-09-11 23:00:00 12.2 21 Nordeste 44 Nordeste 0 -- -- 79
2019-09-11 22:00:00 13 22 Nordeste 36 Nordeste 0 -- -- 75
2019-09-11 21:00:00 14 22 Nordeste 45 Nordeste 0 -- -- 69
2019-09-11 20:00:00 15.6 27 Nordeste 50 Nordeste 0 -- -- 61
2019-09-11 19:00:00 16.9 29 Nordeste 50 Nordeste 0 -- -- 57
2019-09-11 18:00:00 17.7 30 Nordeste 53 Nordeste 0 -- -- 55
2019-09-11 17:00:00 17.4 27 Nordeste 57 Nordeste 0 -- -- 56
2019-09-11 16:00:00 17.1 32 Nordeste 52 Norte 0 -- -- 58
2019-09-11 15:00:00 16.2 29 Nordeste 57 Nordeste 0 -- -- 61
2019-09-11 14:00:00 15.5 24 Nordeste 50 Nordeste 0 -- -- 64
2019-09-11 13:00:00 15.2 33 Norte 51 Norte 0 -- -- 64
2019-09-11 12:00:00 14.3 25 Nordeste 45 Nordeste 0 -- -- 67
2019-09-11 11:00:00 13.5 22 Nordeste 45 Nordeste 0 -- -- 71
2019-09-11 10:00:00 12.3 26 Nordeste 43 Norte 0 -- -- 76
2019-09-11 09:00:00 10.8 16 Norte 29 Nordeste 0 -- -- 83
2019-09-11 08:00:00 10.5 11 Norte 31 Norte 0 -- -- 82
2019-09-11 07:00:00 10.8 14 Norte 31 Norte 0 -- -- 80
2019-09-11 06:00:00 10.9 18 Norte 37 Norte 0 -- -- 80
2019-09-11 05:00:00 10.9 22 Norte 41 Norte 0 -- -- 80
2019-09-11 04:00:00 10.7 20 Norte 37 Norte 0 -- -- 80
2019-09-11 03:00:00 10.5 15 Norte 31 Norte 0 -- -- 82
2019-09-11 02:00:00 10.7 18 Norte 31 Norte 0 -- -- 80
2019-09-11 01:00:00 10.2 13 Norte 32 Norte 0 -- -- 83
2019-09-11 00:00:00 10.8 17 Norte 30 Norte 0 -- -- 82
2019-09-10 23:00:00 10.9 19 Norte 40 Nordeste 0 -- -- 81
2019-09-10 22:00:00 10.7 28 Norte 64 Noroeste 0 -- -- 78
2019-09-10 21:00:00 10.9 33 Norte 54 Norte 0 -- -- 78
2019-09-10 20:00:00 11.9 32 Norte 59 Norte 0 -- -- 76
2019-09-10 19:00:00 12.8 39 Norte 63 Norte 0 -- -- 71
2019-09-10 18:00:00 12.1 27 Norte 53 Norte 0 -- -- 79
2019-09-10 17:00:00 10.8 23 Norte 40 Norte 0.2 -- -- 88
2019-09-10 16:00:00 11 12 Norte 24 Norte 0 -- -- 79
2019-09-10 15:00:00 10.7 14 Norte 35 Noroeste 0.6 -- -- 81
2019-09-10 14:00:00 11.5 23 Norte 47 Noroeste 0 -- -- 71
2019-09-10 13:00:00 13.1 26 Norte 45 Norte 0 -- -- 54
2019-09-10 12:00:00 12.4 22 Norte 41 Norte 0 -- -- 56
2019-09-10 11:00:00 12.2 13 Noroeste 31 Norte 0 -- -- 56
2019-09-10 10:00:00 10.5 10 Norte 25 Nordeste 0 -- -- 64
2019-09-10 09:00:00 9.3 16 Norte 28 Nordeste 0 -- -- 67
2019-09-10 08:00:00 9.4 20 Norte 38 Norte 0 -- -- 64
2019-09-10 07:00:00 8.7 12 Norte 23 Norte 0 -- -- 70
2019-09-10 06:00:00 9 16 Norte 31 Norte 0 -- -- 68
2019-09-10 05:00:00 10 12 Norte 38 Norte 0 -- -- 65
2019-09-10 04:00:00 10.7 21 Norte 41 Norte 0 -- -- 68
2019-09-10 03:00:00 11.2 25 Norte 45 Norte 0 -- -- 70
2019-09-10 02:00:00 11.6 22 Norte 42 Nordeste 0 -- -- 73
2019-09-10 01:00:00 12.2 20 Nordeste 39 Norte 0 -- -- 73
2019-09-10 00:00:00 12.6 22 Norte 37 Norte 0 -- -- 72
2019-09-09 23:00:00 14.1 21 Norte 44 Norte 0 -- -- 66
2019-09-09 22:00:00 15.7 19 Norte 35 Norte 0 -- -- 65
2019-09-09 21:00:00 17.9 17 Norte 31 Nordeste 0 -- -- 55
2019-09-09 20:00:00 22.3 7 Oeste 21 Oeste 0 -- -- 27
2019-09-09 19:00:00 22.5 12 Oeste 31 Sudoeste 0 -- -- 26
2019-09-09 18:00:00 23.2 13 Oeste 33 Noroeste 0 -- -- 29
2019-09-09 17:00:00 23.4 15 Oeste 32 Oeste 0 -- -- 28
2019-09-09 16:00:00 23.8 17 Oeste 37 Oeste 0 -- -- 26
2019-09-09 15:00:00 23.7 17 Oeste 42 Oeste 0 -- -- 30
2019-09-09 14:00:00 23.8 13 Oeste 35 Oeste 0 -- -- 32
2019-09-09 13:00:00 22.6 14 Sudoeste 27 Oeste 0 -- -- 35
2019-09-09 12:00:00 20.4 11 Sudoeste 19 Sudoeste 0 -- -- 42
2019-09-09 11:00:00 18.2 12 Sur 19 Sur 0 -- -- 47
2019-09-09 10:00:00 12.9 4 Sudeste 12 Sur 0 -- -- 71
2019-09-09 09:00:00 7.8 3 Sudeste 5 Sudeste 0 -- -- 84
2019-09-09 08:00:00 5.4 3 Norte 6 Nordeste 0 -- -- 87
2019-09-09 07:00:00 5.7 2 Nordeste 4 Nordeste 0 -- -- 86
2019-09-09 06:00:00 6.1 0 Calma 9 Este 0 -- -- 84
2019-09-09 05:00:00 7.1 2 Este 5 Este 0 -- -- 81
2019-09-09 04:00:00 7.9 2 Norte 5 Nordeste -- -- -- 77
2019-09-09 03:00:00 9.2 4 Norte 13 Nordeste 0 -- -- 74
2019-09-09 02:00:00 10.8 10 Nordeste 21 Nordeste 0 -- -- 71
2019-09-09 01:00:00 11 10 Nordeste 17 Nordeste 0 -- -- 69
2019-09-09 00:00:00 12.3 7 Nordeste 20 Nordeste 0 -- -- 64
2019-09-08 23:00:00 13 6 Nordeste 19 Nordeste 0 -- -- 62
2019-09-08 22:00:00 14.7 10 Nordeste 26 Norte 0 -- -- 58
2019-09-08 21:00:00 16.4 13 Nordeste 33 Norte 0 -- -- 51
2019-09-08 20:00:00 19 18 Nordeste 35 Norte 0 -- -- 45
2019-09-08 19:00:00 21 20 Norte 34 Norte 0 -- -- 41
2019-09-08 18:00:00 22.1 18 Norte 33 Norte 0 -- -- 38
2019-09-08 17:00:00 22.7 17 Norte 32 Norte 0 -- -- 36
2019-09-08 16:00:00 22.6 19 Norte 36 Nordeste 0 -- -- 39
2019-09-08 15:00:00 22 17 Norte 31 Norte 0 -- -- 42
2019-09-08 14:00:00 21.4 14 Norte 26 Nordeste 0 -- -- 43
2019-09-08 13:00:00 19.9 15 Nordeste 30 Nordeste 0 -- -- 49
2019-09-08 12:00:00 18.4 15 Nordeste 26 Nordeste 0 -- -- 56
2019-09-08 11:00:00 16 16 Nordeste 24 Norte 0 -- -- 66
2019-09-08 10:00:00 13.2 16 Nordeste 28 Nordeste 0 -- -- 77
2019-09-08 09:00:00 10.7 18 Nordeste 31 Nordeste 0 -- -- 88
2019-09-08 08:00:00 8.7 8 Nordeste 16 Nordeste 0 -- -- 89
2019-09-08 07:00:00 9 9 Nordeste 14 Nordeste 0 -- -- 89
2019-09-08 06:00:00 9.1 8 Nordeste 18 Nordeste 0 -- -- 88
2019-09-08 05:00:00 9.3 12 Nordeste 19 Nordeste 0 -- -- 87
2019-09-08 04:00:00 9.4 8 Nordeste 12 Nordeste 0 -- -- 86
2019-09-08 03:00:00 10.2 8 Nordeste 22 Nordeste 0 -- -- 83
2019-09-08 02:00:00 10.6 14 Nordeste 26 Nordeste 0 -- -- 83
2019-09-08 01:00:00 11.3 13 Nordeste 28 Nordeste 0 -- -- 80
2019-09-08 00:00:00 12.2 15 Nordeste 28 Nordeste 0 -- -- 75
2019-09-07 23:00:00 13.2 18 Nordeste 35 Nordeste 0 -- -- 71
2019-09-07 22:00:00 14.3 19 Nordeste 42 Nordeste 0 -- -- 67
2019-09-07 21:00:00 15.7 22 Nordeste 44 Nordeste 0 -- -- 61
2019-09-07 20:00:00 17.9 24 Nordeste 51 Norte 0 -- -- 51
2019-09-07 19:00:00 19.6 30 Nordeste 50 Nordeste 0 -- -- 40
2019-09-07 18:00:00 20.5 28 Nordeste 51 Nordeste 0 -- -- 32
2019-09-07 17:00:00 20.6 32 Nordeste 46 Norte 0 -- -- 34
2019-09-07 16:00:00 20.4 30 Nordeste 48 Nordeste 0 -- -- 35
2019-09-07 15:00:00 20 28 Nordeste 46 Nordeste 0 -- -- 34
2019-09-07 14:00:00 18.8 22 Nordeste 39 Nordeste 0 -- -- 41
2019-09-07 13:00:00 17.1 22 Nordeste 35 Nordeste 0 -- -- 48
2019-09-07 12:00:00 15 23 Nordeste 42 Nordeste 0 -- -- 54
2019-09-07 11:00:00 12.9 23 Nordeste 43 Nordeste 0 -- -- 60
2019-09-07 10:00:00 11.9 19 Nordeste 37 Nordeste 0 -- -- 66
2019-09-07 09:00:00 9.8 19 Nordeste 32 Nordeste 0 -- -- 75
2019-09-07 08:00:00 8.3 12 Nordeste 22 Nordeste 0 -- -- 81
2019-09-07 07:00:00 8.8 11 Nordeste 24 Nordeste 0 -- -- 80
2019-09-07 06:00:00 9.2 15 Nordeste 31 Nordeste 0 -- -- 80
2019-09-07 05:00:00 9.5 18 Nordeste 34 Nordeste 0 -- -- 79
2019-09-07 04:00:00 9.6 18 Nordeste 40 Nordeste 0 -- -- 79
2019-09-07 03:00:00 9.7 19 Nordeste 42 Nordeste 0 -- -- 78
2019-09-07 02:00:00 9.8 24 Nordeste 45 Nordeste 0 -- -- 76
2019-09-07 01:00:00 9.8 21 Nordeste 42 Nordeste 0 -- -- 75
2019-09-07 00:00:00 10 25 Nordeste 48 Nordeste 0 -- -- 72
2019-09-06 23:00:00 10.9 26 Nordeste 47 Nordeste 0 -- -- 67
2019-09-06 22:00:00 11.8 27 Nordeste 47 Nordeste 0 -- -- 62
2019-09-06 21:00:00 13.2 23 Nordeste 67 Nordeste 0 -- -- 57
2019-09-06 20:00:00 15.2 32 Nordeste 57 Nordeste 0 -- -- 50
2019-09-06 19:00:00 17.1 32 Nordeste 51 Nordeste 0 -- -- 41
2019-09-06 18:00:00 18.2 28 Nordeste 54 Nordeste 0 -- -- 39
2019-09-06 17:00:00 18.5 31 Nordeste 48 Norte 0 -- -- 40
2019-09-06 16:00:00 18.3 29 Nordeste 50 Nordeste 0 -- -- 40
2019-09-06 15:00:00 17.8 26 Nordeste 50 Norte 0 -- -- 44
2019-09-06 14:00:00 16.4 31 Nordeste 51 Norte 0 -- -- 49
2019-09-06 13:00:00 15.7 31 Nordeste 47 Nordeste 0 -- -- 51
2019-09-06 12:00:00 14.6 28 Nordeste 51 Nordeste 0 -- -- 56
2019-09-06 11:00:00 13.4 30 Nordeste 49 Nordeste 0 -- -- 63
2019-09-06 10:00:00 12.1 26 Nordeste 54 Nordeste 0 -- -- 67
2019-09-06 09:00:00 10.1 23 Nordeste 40 Nordeste 0 -- -- 74
2019-09-06 08:00:00 9.2 20 Nordeste 38 Nordeste 0 -- -- 74
2019-09-06 07:00:00 9.4 17 Nordeste 43 Nordeste 0 -- -- 73
2019-09-06 06:00:00 9.9 26 Nordeste 49 Nordeste 0 -- -- 72
2019-09-06 05:00:00 9.7 24 Nordeste 41 Nordeste 0 -- -- 79
2019-09-06 04:00:00 9.8 20 Nordeste 43 Nordeste 0 -- -- 81
2019-09-06 03:00:00 10.2 23 Nordeste 38 Nordeste 0 -- -- 81
2019-09-06 02:00:00 10.2 21 Norte 35 Norte 0 -- -- 81
2019-09-06 01:00:00 10.1 19 Norte 31 Nordeste 0 -- -- 79
2019-09-06 00:00:00 10.6 16 Norte 35 Nordeste 0 -- -- 77
2019-09-05 23:00:00 11.3 20 Nordeste 39 Norte 0 -- -- 73
2019-09-05 22:00:00 12.3 18 Nordeste 35 Nordeste 0 -- -- 69
2019-09-05 21:00:00 13.5 22 Norte 41 Nordeste 0 -- -- 70
2019-09-05 20:00:00 15.8 25 Nordeste 49 Norte 0 -- -- 53
2019-09-05 19:00:00 17 27 Norte 47 Norte 0 -- -- 53
2019-09-05 18:00:00 17.4 24 Nordeste 57 Norte 0 -- -- 48
2019-09-05 17:00:00 17.7 32 Norte 48 Nordeste 0 -- -- 52
2019-09-05 16:00:00 18.4 22 Nordeste 50 Nordeste 0 -- -- 48
2019-09-05 15:00:00 17.8 28 Nordeste 54 Norte 0 -- -- 46
2019-09-05 14:00:00 16.5 24 Nordeste 48 Norte 0 -- -- 49
2019-09-05 13:00:00 15.6 26 Nordeste 48 Nordeste 0 -- -- 57
2019-09-05 12:00:00 15.6 26 Nordeste 45 Nordeste 0 -- -- 52
2019-09-05 11:00:00 14.2 27 Nordeste 47 Norte 0 -- -- 53
2019-09-05 10:00:00 13.3 28 Nordeste 61 Norte 0 -- -- 68
2019-09-05 09:00:00 12.2 30 Norte 50 Norte 0 -- -- 73
2019-09-05 08:00:00 11.7 21 Nordeste 45 Norte 0 -- -- 81
2019-09-05 07:00:00 12.7 23 Nordeste 42 Nordeste 0 -- -- 82
2019-09-05 06:00:00 12.9 23 Nordeste 39 Norte 0 -- -- 81
2019-09-05 05:00:00 12.8 25 Nordeste 41 Nordeste 0 -- -- 78
2019-09-05 04:00:00 12.4 23 Nordeste 42 Nordeste 0 -- -- 73
2019-09-05 03:00:00 12.2 24 Nordeste 46 Norte 0 -- -- 73
2019-09-05 02:00:00 12.6 27 Nordeste 55 Nordeste 0 -- -- 77
2019-09-05 01:00:00 13.2 32 Nordeste 58 Norte 0 -- -- 76
2019-09-05 00:00:00 13.8 32 Nordeste 50 Nordeste 0 -- -- 75
2019-09-04 23:00:00 14.8 32 Nordeste 52 Nordeste 0 -- -- 70
2019-09-04 22:00:00 15.9 31 Nordeste 53 Norte 0 -- -- 66
2019-09-04 21:00:00 17.5 28 Nordeste 67 Nordeste 0 -- -- 60
2019-09-04 20:00:00 19.9 33 Nordeste 53 Nordeste 0 -- -- 52
2019-09-04 19:00:00 22.5 32 Nordeste 54 Nordeste 0 -- -- 43
2019-09-04 18:00:00 24.2 27 Nordeste 46 Norte 0 -- -- 38
2019-09-04 17:00:00 25.1 24 Nordeste 42 Nordeste 0 -- -- 35
2019-09-04 16:00:00 25.6 24 Nordeste 39 Nordeste 0 -- -- 28
2019-09-04 15:00:00 25.2 21 Nordeste 41 Norte 0 -- -- 25
2019-09-04 14:00:00 25.2 22 Norte 35 Norte 0 -- -- 25
2019-09-04 13:00:00 24.5 15 Norte 24 Norte 0 -- -- 26
2019-09-04 12:00:00 23 11 Norte 21 Norte 0 -- -- 36
2019-09-04 11:00:00 20.5 7 Norte 13 Norte 0 -- -- 41
2019-09-04 10:00:00 15.7 2 Norte 5 Norte 0 -- -- 58
2019-09-04 09:00:00 10.3 3 Este 8 Nordeste 0 -- -- 76
2019-09-04 08:00:00 6.4 2 Nordeste 5 Este 0 -- -- 82
2019-09-04 07:00:00 7.9 4 Nordeste 10 Nordeste 0 -- -- 78
2019-09-04 06:00:00 7.2 0 Calma 6 Sudeste 0 -- -- 81
2019-09-04 05:00:00 7.9 0 Calma 6 Este 0 -- -- 79
2019-09-04 04:00:00 8.9 3 Nordeste 6 Nordeste 0 -- -- 79
2019-09-04 03:00:00 9.8 3 Este 6 Sudeste 0 -- -- 75
2019-09-04 02:00:00 11.3 2 Norte 8 Nordeste 0 -- -- 70
2019-09-04 01:00:00 14 4 Nordeste 10 Norte 0 -- -- 64
2019-09-04 00:00:00 15.6 3 Nordeste 11 Norte 0 -- -- 59
2019-09-03 23:00:00 17.3 6 Nordeste 15 Nordeste 0 -- -- 54
2019-09-03 22:00:00 19.4 8 Nordeste 13 Nordeste 0 -- -- 44
2019-09-03 21:00:00 21.6 8 Nordeste 20 Nordeste 0 -- -- 38
2019-09-03 20:00:00 24.8 14 Norte 24 Norte 0 -- -- 30
2019-09-03 19:00:00 26.8 12 Norte 23 Nordeste 0 -- -- 24
2019-09-03 18:00:00 27.2 13 Norte 28 Norte 0 -- -- 24
2019-09-03 17:00:00 27.2 12 Norte 24 Nordeste 0 -- -- 21
2019-09-03 16:00:00 26.5 12 Norte 23 Norte 0 -- -- 24
2019-09-03 15:00:00 25.2 10 Norte 21 Norte 0 -- -- 26
2019-09-03 14:00:00 23.9 9 Norte 21 Norte 0 -- -- 32
2019-09-03 13:00:00 22.3 8 Norte 17 Noroeste 0 -- -- 37
2019-09-03 12:00:00 19.8 5 Norte 11 Norte 0 -- -- 39
2019-09-03 11:00:00 16.1 5 Noroeste 9 Noroeste 0 -- -- 54
2019-09-03 10:00:00 13.8 0 Calma 7 Este 0 -- -- 59
2019-09-03 09:00:00 9.5 2 Sudeste 5 Nordeste 0 -- -- 81
2019-09-03 08:00:00 7.6 3 Nordeste 9 Este 0 -- -- 85
2019-09-03 07:00:00 8.9 7 Este 16 Nordeste 0 -- -- 83
2019-09-03 06:00:00 9.6 9 Nordeste 18 Nordeste 0 -- -- 84
2019-09-03 05:00:00 9.9 10 Nordeste 20 Nordeste 0 -- -- 83
2019-09-03 04:00:00 10.3 13 Nordeste 20 Nordeste 0 -- -- 81
2019-09-03 03:00:00 10.6 12 Nordeste 22 Nordeste 0 -- -- 80
2019-09-03 02:00:00 10.8 10 Nordeste 24 Nordeste -- -- -- 79
2019-09-03 01:00:00 11.6 16 Nordeste 35 Nordeste 0 -- -- 75
2019-09-03 00:00:00 12.3 19 Nordeste 44 Nordeste 0 -- -- 74
2019-09-02 23:00:00 13.1 23 Nordeste 46 Nordeste 0 -- -- 72
2019-09-02 22:00:00 14.3 27 Nordeste 49 Nordeste 0 -- -- 66
2019-09-02 21:00:00 16 28 Nordeste 51 Nordeste 0 -- -- 58
2019-09-02 20:00:00 18.1 31 Nordeste 48 Nordeste 0 -- -- 51
2019-09-02 19:00:00 19.7 31 Nordeste 49 Norte 0 -- -- 45
2019-09-02 18:00:00 20.7 30 Nordeste 62 Nordeste 0 -- -- 41
2019-09-02 17:00:00 21.4 27 Nordeste 50 Norte 0 -- -- 37
2019-09-02 16:00:00 21.4 27 Nordeste 46 Norte 0 -- -- 37
2019-09-02 15:00:00 20.9 25 Nordeste 44 Nordeste 0 -- -- 38
2019-09-02 14:00:00 19.5 24 Nordeste 45 Norte 0 -- -- 44
2019-09-02 13:00:00 17.5 30 Nordeste 51 Nordeste 0 -- -- 49
2019-09-02 12:00:00 15.3 32 Nordeste 63 Nordeste 0 -- -- 62
2019-09-02 11:00:00 14.3 30 Nordeste 54 Nordeste 0 -- -- 65
2019-09-02 10:00:00 13 33 Nordeste 54 Nordeste 0 -- -- 70
2019-09-02 09:00:00 11.8 29 Nordeste 50 Nordeste 0 -- -- 77
2019-09-02 08:00:00 11 28 Nordeste 44 Nordeste 0 -- -- 81
2019-09-02 07:00:00 11.1 21 Nordeste 45 Norte 0 -- -- 84
2019-09-02 06:00:00 11.3 24 Nordeste 47 Nordeste 0 -- -- 84
2019-09-02 05:00:00 11.6 24 Nordeste 43 Nordeste 0 -- -- 84
2019-09-02 04:00:00 12 24 Nordeste 50 Nordeste 0 -- -- 81
2019-09-02 03:00:00 12.6 31 Nordeste 49 Nordeste 0 -- -- 82
2019-09-02 02:00:00 13.7 28 Nordeste 52 Nordeste 0 -- -- 82
2019-09-02 01:00:00 14.1 26 Nordeste 50 Nordeste 0 -- -- 82
2019-09-02 00:00:00 14.7 23 Nordeste 46 Nordeste 0 -- -- 80
2019-09-01 23:00:00 15.3 26 Nordeste 46 Nordeste 0 -- -- 80
2019-09-01 22:00:00 16.1 28 Nordeste 50 Norte 0 -- -- 77
2019-09-01 21:00:00 17.6 28 Nordeste 49 Nordeste 0 -- -- 71
2019-09-01 20:00:00 19.5 27 Nordeste 46 Nordeste 0 -- -- 63
2019-09-01 19:00:00 20.1 27 Nordeste 46 Nordeste 0 -- -- 61
2019-09-01 18:00:00 21.2 27 Nordeste 42 Nordeste 0 -- -- 59
2019-09-01 17:00:00 22.2 27 Norte 41 Nordeste 0 -- -- 55
2019-09-01 16:00:00 22.4 22 Nordeste 40 Nordeste 0 -- -- 55
2019-09-01 15:00:00 22 22 Nordeste 38 Norte 0 -- -- 58
2019-09-01 14:00:00 21.3 24 Norte 39 Norte 0 -- -- 61
2019-09-01 13:00:00 21.6 21 Nordeste 36 Norte 0 -- -- 61
2019-09-01 12:00:00 19.3 22 Nordeste 36 Nordeste 0 -- -- 70
2019-09-01 11:00:00 18.2 19 Nordeste 33 Nordeste 0 -- -- 76
2019-09-01 10:00:00 17.5 18 Nordeste 29 Nordeste 0 -- -- 80
2019-09-01 09:00:00 16.2 15 Nordeste 25 Nordeste 0 -- -- 86
2019-09-01 08:00:00 15.3 10 Nordeste 21 Nordeste 0 -- -- 89
2019-09-01 07:00:00 15.3 12 Nordeste 18 Nordeste 0 -- -- 88
2019-09-01 06:00:00 15.7 12 Nordeste 19 Este 0 -- -- 87
2019-09-01 05:00:00 15.8 7 Nordeste 14 Nordeste 0 -- -- 86
2019-09-01 04:00:00 16.4 9 Nordeste 24 Nordeste 0 -- -- 85
2019-09-01 03:00:00 16.7 17 Nordeste 35 Nordeste 0 -- -- 84
2019-09-01 02:00:00 16.6 21 Nordeste 37 Norte 0 -- -- 85
2019-09-01 01:00:00 16.9 22 Nordeste 40 Nordeste 0 -- -- 86
2019-09-01 00:00:00 17.5 24 Nordeste 42 Norte 0 -- -- 81
2019-08-31 23:00:00 18.8 20 Norte 39 Norte 0 -- -- 76
2019-08-31 22:00:00 21.5 18 Nordeste 35 Nordeste 0 -- -- 66
2019-08-31 21:00:00 25.3 21 Nordeste 35 Nordeste 0 -- -- 53
2019-08-31 20:00:00 29.5 6 Norte 17 Noroeste 0 -- -- 30
2019-08-31 19:00:00 30.7 9 Noroeste 28 Oeste 0 -- -- 28
2019-08-31 18:00:00 30.1 6 Noroeste 19 Oeste 0 -- -- 28
2019-08-31 17:00:00 30.7 8 Oeste 24 Noroeste 0 -- -- 27
2019-08-31 16:00:00 31.1 9 Oeste 24 Oeste 0 -- -- 26
2019-08-31 15:00:00 31 9 Sudoeste 23 Sudoeste 0 -- -- 28
2019-08-31 14:00:00 29.6 9 Sudoeste 21 Sudoeste 0 -- -- 31
2019-08-31 13:00:00 28.5 7 Sudoeste 16 Sudoeste 0 -- -- 33
2019-08-31 12:00:00 26.5 7 Sudoeste 16 Sudoeste 0 -- -- 37
2019-08-31 11:00:00 24.5 8 Sudoeste 18 Sudoeste 0 -- -- 41
2019-08-31 10:00:00 23.1 10 Sur 16 Sur 0 -- -- 43
2019-08-31 09:00:00 20 5 Sudeste 11 Sudeste 0 -- -- 51
2019-08-31 08:00:00 18 6 Sudeste 19 Sudeste 0 -- -- 56
2019-08-31 07:00:00 17.9 9 Sudeste 15 Sur 0 -- -- 56
2019-08-31 06:00:00 17.6 7 Sur 11 Sur 0 -- -- 57
2019-08-31 05:00:00 18.4 2 Sudeste 14 Sudeste 0 -- -- 55
2019-08-31 04:00:00 18.5 5 Sudeste 11 Este 0 -- -- 54
2019-08-31 03:00:00 19.5 5 Nordeste 19 Este 0 -- -- 52
2019-08-31 02:00:00 21.1 12 Sudeste 19 Sudeste 0 -- -- 47
2019-08-31 01:00:00 21.5 13 Sudeste 21 Sudeste 0 -- -- 47
2019-08-31 00:00:00 23.3 16 Sur 21 Sur 0 -- -- 42
2019-08-30 23:00:00 24 13 Sudeste 27 Sudeste 0 -- -- 41
2019-08-30 22:00:00 25 17 Sudeste 26 Sur 0 -- -- 38
2019-08-30 21:00:00 25.7 9 Sur 27 Sudoeste 0 -- -- 35
2019-08-30 20:00:00 28.3 18 Sudoeste 37 Sur 0 -- -- 30
2019-08-30 19:00:00 29.2 28 Sudoeste 42 Sur 0 -- -- 31
2019-08-30 18:00:00 32.6 8 Oeste 23 Sudoeste 0 -- -- 24
2019-08-30 17:00:00 32.3 9 Oeste 22 Oeste 0 -- -- 25
2019-08-30 16:00:00 31.6 10 Sudoeste 23 Oeste 0 -- -- 26
2019-08-30 15:00:00 31.5 17 Sudoeste 29 Sudoeste 0 -- -- 26
2019-08-30 14:00:00 31.1 8 Sur 23 Sudoeste 0 -- -- 27
2019-08-30 13:00:00 29.9 7 Sur 21 Sur 0 -- -- 29
2019-08-30 12:00:00 27.8 8 Sur 15 Sur 0 -- -- 35
2019-08-30 11:00:00 25.1 9 Sur 15 Sur 0 -- -- 42
2019-08-30 10:00:00 20.1 3 Oeste 5 Oeste 0 -- -- 57
2019-08-30 09:00:00 16.5 0 Calma 4 Norte 0 -- -- 71
2019-08-30 08:00:00 14.3 3 Norte 4 Este 0 -- -- 74
2019-08-30 07:00:00 14.7 3 Nordeste 5 Este 0 -- -- 74
2019-08-30 06:00:00 15.6 0 Calma 5 Norte 0 -- -- 71
2019-08-30 05:00:00 17.2 3 Norte 9 Este 0 -- -- 64
2019-08-30 04:00:00 19.4 6 Nordeste 19 Este 0 -- -- 54
2019-08-30 03:00:00 21.2 10 Sudeste 21 Sudeste 0 -- -- 48
2019-08-30 02:00:00 20.9 6 Sudeste 15 Sudeste 0 -- -- 49
2019-08-30 01:00:00 22.3 8 Sudeste 21 Sudeste 0 -- -- 48
2019-08-30 00:00:00 22.5 8 Sudeste 19 Nordeste 0 -- -- 48
2019-08-29 23:00:00 22.3 10 Nordeste 22 Nordeste 0 -- -- 66
2019-08-29 22:00:00 24.3 10 Nordeste 24 Nordeste 0 -- -- 54
2019-08-29 21:00:00 27.5 3 Oeste 14 Oeste 0 -- -- 31
2019-08-29 20:00:00 30.5 7 Oeste 22 Oeste 0 -- -- 27
2019-08-29 19:00:00 31.6 4 Oeste 21 Sudoeste 0 -- -- 26
2019-08-29 18:00:00 31.8 7 Oeste 22 Oeste 0 -- -- 26
2019-08-29 17:00:00 31.6 13 Sudoeste 28 Oeste 0 -- -- 29
2019-08-29 16:00:00 30.4 13 Sudoeste 22 Sur 0 -- -- 32
2019-08-29 15:00:00 29.6 7 Sudoeste 24 Sudoeste 0 -- -- 33
2019-08-29 14:00:00 29.5 12 Sur 27 Sur 0 -- -- 33
2019-08-29 13:00:00 28.4 13 Sur 23 Sur 0 -- -- 36
2019-08-29 12:00:00 27 11 Sur 22 Sur 0 -- -- 40
2019-08-29 11:00:00 25.1 12 Sur 20 Sur 0 -- -- 47
2019-08-29 10:00:00 20.4 3 Oeste 13 Este 0 -- -- 63
2019-08-29 09:00:00 16.6 2 Este 6 Este 0 -- -- 79
2019-08-29 08:00:00 14.3 4 Este 6 Este 0 -- -- 87
2019-08-29 07:00:00 14.5 2 Sudeste 6 Nordeste 0 -- -- 84
2019-08-29 06:00:00 15.3 4 Nordeste 9 Nordeste 0 -- -- 81
2019-08-29 05:00:00 15.7 6 Nordeste 11 Nordeste 0 -- -- 78
2019-08-29 04:00:00 16.5 6 Este 10 Nordeste 0 -- -- 75
2019-08-29 03:00:00 16.5 4 Nordeste 7 Nordeste 0 -- -- 79
2019-08-29 02:00:00 18 3 Este 17 Este 0 -- -- 77
2019-08-29 01:00:00 18.9 10 Nordeste 17 Nordeste 0 -- -- 79
2019-08-29 00:00:00 19.8 9 Nordeste 14 Nordeste 0 -- -- 70
2019-08-28 23:00:00 21 8 Este 10 Este 0 -- -- 52
2019-08-28 22:00:00 22.5 3 Nordeste 3 Este 0 -- -- 48
2019-08-28 21:00:00 25.4 2 Oeste 8 Oeste 0 -- -- 40
2019-08-28 20:00:00 28.3 5 Oeste 15 Sudoeste 0 -- -- 34
2019-08-28 19:00:00 29.4 8 Sudoeste 18 Oeste 0 -- -- 31
2019-08-28 18:00:00 29.4 11 Sudoeste 21 Sudoeste 0 -- -- 32
2019-08-28 17:00:00 29.4 9 Sudoeste 21 Oeste 0 -- -- 32
2019-08-28 16:00:00 27.8 5 Noroeste 23 Sudoeste 0 -- -- 36
2019-08-28 15:00:00 28.2 9 Oeste 20 Oeste 0 -- -- 36
2019-08-28 14:00:00 27 13 Sur 23 Sur 0 -- -- 37
2019-08-28 13:00:00 26.2 9 Sudoeste 26 Sudoeste 0 -- -- 41
2019-08-28 12:00:00 24.7 8 Sur 15 Sudoeste 0 -- -- 46
2019-08-28 11:00:00 22.6 8 Sur 19 Sudeste 0 -- -- 52
2019-08-28 10:00:00 20.1 13 Sur 20 Sudeste 0 -- -- 61
2019-08-28 09:00:00 14.9 2 Sudeste 6 Sudeste 0 -- -- 86
2019-08-28 08:00:00 12.7 0 Calma 5 Noroeste 0 -- -- 87
2019-08-28 07:00:00 13.1 3 Oeste 8 Sudeste 0 -- -- 85
2019-08-28 06:00:00 15.2 5 Sudeste 12 Este 0 -- -- 79
2019-08-28 05:00:00 13.2 3 Este 9 Sudeste 0 -- -- 86
2019-08-28 04:00:00 14.4 0 Calma 4 Este 0 -- -- 82
2019-08-28 03:00:00 15.6 4 Este 9 Oeste 0 -- -- 77
2019-08-28 02:00:00 16.1 2 Norte 12 Este 0 -- -- 76
2019-08-28 01:00:00 17.1 5 Este 9 Este 0 -- -- 72
2019-08-28 00:00:00 17.9 3 Nordeste 13 Nordeste 0 -- -- 67
2019-08-27 23:00:00 19.3 8 Este 15 Este 0 -- -- 61
2019-08-27 22:00:00 21.1 7 Nordeste 12 Este 0 -- -- 53
2019-08-27 21:00:00 22.8 4 Nordeste 12 Norte 0 -- -- 46
2019-08-27 20:00:00 25.1 6 Norte 14 Norte 0 -- -- 39
2019-08-27 19:00:00 25.6 5 Norte 14 Nordeste 0 -- -- 39
2019-08-27 18:00:00 23.9 10 Nordeste 18 Nordeste 0 -- -- 45
2019-08-27 17:00:00 25.2 7 Sur 18 Sur 0 -- -- 37
2019-08-27 16:00:00 25.1 9 Sur 21 Sur 0 -- -- 40
2019-08-27 15:00:00 24.1 6 Sur 19 Sur 0 -- -- 43
2019-08-27 14:00:00 23.1 8 Sur 18 Sur 0 -- -- 47
2019-08-27 13:00:00 21.7 8 Sur 18 Sur 0 -- -- 51
2019-08-27 12:00:00 20.2 7 Sur 14 Sur 0 -- -- 58
2019-08-27 11:00:00 18.3 5 Sudeste 15 Sudeste 0 -- -- 66
2019-08-27 10:00:00 17.2 10 Sur 17 Sudeste 0 -- -- 68
2019-08-27 09:00:00 14.1 4 Este 9 Sudeste 0 -- -- 84
2019-08-27 08:00:00 12.8 3 Sudeste 10 Este 0 -- -- 82
2019-08-27 07:00:00 13 2 Norte 10 Nordeste 0 -- -- 82
2019-08-27 06:00:00 13.4 4 Nordeste 9 Oeste 0 -- -- 80
2019-08-27 05:00:00 14.9 3 Oeste 24 Este 0 -- -- 74
2019-08-27 04:00:00 15.5 12 Sudeste 27 Sudeste 0 -- -- 72
2019-08-27 03:00:00 14.3 9 Este 21 Este 0 -- -- 78
2019-08-27 02:00:00 15.1 9 Este 28 Sudeste 0 -- -- 74
2019-08-27 01:00:00 14.8 9 Este 25 Sur 0 -- -- 77
2019-08-27 00:00:00 15.3 10 Sur 22 Este 0 -- -- 74
2019-08-26 23:00:00 15.8 13 Este 23 Este 0 -- -- 72
2019-08-26 22:00:00 15.7 16 Sudoeste 46 Sur 0 -- -- 71
2019-08-26 21:00:00 14.8 29 Sudoeste 46 Sudoeste 0 -- -- 79
2019-08-26 20:00:00 17.8 11 Sur 32 Este 0 -- -- 70
2019-08-26 19:00:00 18.2 17 Nordeste 31 Nordeste 1.8 -- -- 72
2019-08-26 18:00:00 18.8 10 Nordeste 25 Este 0.4 -- -- 71
2019-08-26 17:00:00 19.3 10 Nordeste 18 Este 0 -- -- 77
2019-08-26 16:00:00 17.7 8 Este 36 Sur 2.6 -- -- 75
2019-08-26 15:00:00 22.5 24 Sur 43 Sur 0 -- -- 46
2019-08-26 14:00:00 23.6 23 Sur 43 Sudoeste 0 -- -- 43
2019-08-26 13:00:00 24.7 28 Sur 42 Sur 0 -- -- 40
2019-08-26 12:00:00 20.6 16 Este 29 Este 0 -- -- 57
2019-08-26 11:00:00 19 14 Sudoeste 30 Sur 0 -- -- 73
2019-08-26 10:00:00 17.6 12 Sudoeste 24 Sudoeste 0 -- -- 80
2019-08-26 09:00:00 15.2 2 Noroeste 9 Norte 0 -- -- 90
2019-08-26 08:00:00 14.5 6 Norte 13 Sur 0 -- -- 91
2019-08-26 07:00:00 15.1 8 Sur 12 Este 0 -- -- 90
2019-08-26 06:00:00 15.6 8 Nordeste 16 Nordeste 0 -- -- 90
2019-08-26 05:00:00 15.6 4 Norte 8 Oeste 0 -- -- 88
2019-08-26 04:00:00 15.5 4 Oeste 11 Oeste 0 -- -- 90
2019-08-26 03:00:00 15.7 4 Sudoeste 12 Norte 0 -- -- 86
2019-08-26 02:00:00 16.5 6 Norte 17 Norte 0 -- -- 85
2019-08-26 01:00:00 17 9 Norte 27 Nordeste 0 -- -- 82
2019-08-26 00:00:00 18.4 17 Nordeste 31 Este 0 -- -- 76
2019-08-25 23:00:00 18.6 17 Nordeste 36 Nordeste 0 -- -- 74
2019-08-25 22:00:00 18.1 19 Nordeste 35 Norte 0 -- -- 77
2019-08-25 21:00:00 18.8 22 Nordeste 58 Norte 0 -- -- 75
2019-08-25 20:00:00 20.8 25 Norte 54 Norte 0 -- -- 66
2019-08-25 19:00:00 26.6 23 Noroeste 36 Noroeste 0 -- -- 42
2019-08-25 18:00:00 30.9 15 Sur 37 Sur 0 -- -- 22
2019-08-25 17:00:00 31.8 20 Sur 39 Sur 0 -- -- 22
2019-08-25 16:00:00 32 14 Sudeste 25 Sudeste 0 -- -- 22
2019-08-25 15:00:00 32.7 13 Sur 26 Sur 0 -- -- 22
2019-08-25 14:00:00 31.9 10 Sur 30 Sur 0 -- -- 23
2019-08-25 13:00:00 30.6 16 Sur 30 Sudeste 0 -- -- 24
2019-08-25 12:00:00 29 15 Sudeste 28 Sudeste 0 -- -- 28
2019-08-25 11:00:00 26.7 20 Sur 29 Sudeste 0 -- -- 34
2019-08-25 10:00:00 24.7 14 Sudeste 27 Sudeste 0 -- -- 38
2019-08-25 09:00:00 22.2 16 Sudeste 27 Este 0 -- -- 42
2019-08-25 08:00:00 21 13 Este 27 Este 0 -- -- 43
2019-08-25 07:00:00 21.2 15 Sudeste 29 Este 0 -- -- 40
2019-08-25 06:00:00 22.2 16 Sudeste 28 Sudeste 0 -- -- 37
2019-08-25 05:00:00 22.9 17 Sudeste 30 Sudeste 0 -- -- 33
2019-08-25 04:00:00 23.5 18 Sudeste 30 Sudeste 0 -- -- 30
2019-08-25 03:00:00 23.6 19 Sudeste 30 Este 0 -- -- 28
2019-08-25 02:00:00 23.8 16 Sudeste 36 Sudeste 0 -- -- 30
2019-08-25 01:00:00 24 17 Sudeste 28 Sudeste 0 -- -- 33
2019-08-25 00:00:00 24 12 Sudeste 21 Este 0 -- -- 35
2019-08-24 23:00:00 24.5 11 Sudeste 19 Sudeste 0 -- -- 32
2019-08-24 22:00:00 26.1 4 Nordeste 9 Nordeste 0 -- -- 27
2019-08-24 21:00:00 27.9 6 Norte 13 Norte 0 -- -- 25
2019-08-24 20:00:00 31 7 Oeste 17 Noroeste 0 -- -- 22
2019-08-24 19:00:00 31.8 5 Oeste 16 Norte 0 -- -- 21
2019-08-24 18:00:00 31.8 10 Norte 23 Noroeste 0 -- -- 21
2019-08-24 17:00:00 31.8 10 Noroeste 21 Norte 0 -- -- 21
2019-08-24 16:00:00 31.4 9 Noroeste 22 Norte 0 -- -- 22
2019-08-24 15:00:00 31.3 8 Noroeste 23 Noroeste 0 -- -- 21
2019-08-24 14:00:00 30.7 10 Norte 26 Noroeste 0 -- -- 22
2019-08-24 13:00:00 29.7 5 Sudoeste 12 Sudoeste 0 -- -- 23
2019-08-24 12:00:00 27.6 5 Oeste 12 Sudoeste 0 -- -- 27
2019-08-24 11:00:00 25.3 6 Sudoeste 14 Sudoeste 0 -- -- 32
2019-08-24 10:00:00 21.2 2 Norte 6 Nordeste 0 -- -- 47
2019-08-24 09:00:00 16 0 Calma 9 Nordeste 0 -- -- 60
2019-08-24 08:00:00 12.5 4 Nordeste 6 Nordeste 0 -- -- 67
2019-08-24 07:00:00 13.5 2 Este 9 Este 0 -- -- 64
2019-08-24 06:00:00 14.7 0 Calma 11 Nordeste 0 -- -- 59
2019-08-24 05:00:00 16 2 Nordeste 9 Este 0 -- -- 56
2019-08-24 04:00:00 15.4 3 Sudoeste 10 Sudoeste 0 -- -- 57
2019-08-24 03:00:00 17.3 3 Noroeste 14 Este 0 -- -- 51
2019-08-24 02:00:00 18.8 11 Nordeste 19 Este 0 -- -- 47
2019-08-24 01:00:00 20.2 10 Nordeste 22 Este 0 -- -- 44
2019-08-24 00:00:00 22.1 12 Nordeste 18 Nordeste 0 -- -- 40
2019-08-23 23:00:00 23 10 Nordeste 21 Norte 0 -- -- 36
2019-08-23 22:00:00 24.7 6 Noroeste 12 Noroeste 0 -- -- 23
2019-08-23 21:00:00 27.7 3 Noroeste 14 Oeste 0 -- -- 21
2019-08-23 20:00:00 30.9 6 Oeste 14 Oeste 0 -- -- 20
2019-08-23 19:00:00 31.6 4 Oeste 17 Sur 0 -- -- 20
2019-08-23 18:00:00 31.4 8 Norte 18 Noroeste 0 -- -- 19
2019-08-23 17:00:00 31.3 8 Oeste 24 Sudoeste 0 -- -- 18
2019-08-23 16:00:00 31 8 Sudoeste 27 Sudoeste 0 -- -- 19
2019-08-23 15:00:00 30 7 Sudoeste 31 Sudoeste 0 -- -- 22
2019-08-23 14:00:00 29.1 8 Oeste 25 Sudoeste 0 -- -- 25
2019-08-23 13:00:00 27.6 11 Sudoeste 22 Sur 0 -- -- 29
2019-08-23 12:00:00 26 12 Sudoeste 22 Sudoeste 0 -- -- 34
2019-08-23 11:00:00 24.1 9 Sudoeste 19 Sudeste 0 -- -- 36
2019-08-23 10:00:00 22.1 11 Sur 18 Sur 0 -- -- 41
2019-08-23 09:00:00 15.3 5 Sudeste 14 Sudeste 0 -- -- 56
2019-08-23 08:00:00 11.2 5 Oeste 9 Oeste 0 -- -- 59
2019-08-23 07:00:00 11.9 0 Calma 6 Este 0 -- -- 58
2019-08-23 06:00:00 16.1 4 Sudoeste 17 Sudeste 0 -- -- 46
2019-08-23 05:00:00 16.1 10 Este 18 Sudeste 0 -- -- 49
2019-08-23 04:00:00 14.1 7 Este 12 Nordeste 0 -- -- 48
2019-08-23 03:00:00 15.2 5 Este 10 Nordeste 0 -- -- 46
2019-08-23 02:00:00 15.9 6 Nordeste 14 Nordeste 0 -- -- 44
2019-08-23 01:00:00 15.5 4 Norte 20 Nordeste 0 -- -- 46
2019-08-23 00:00:00 17.9 11 Este 19 Nordeste 0 -- -- 41